createdAt,value
2018-11-07T00:00:10.092Z,21.40
2018-11-07T00:02:39.163Z,20.23
2018-11-07T00:05:08.015Z,21.37
2018-11-07T00:07:37.003Z,24.37
2018-11-07T00:10:07.022Z,19.92
2018-11-07T00:12:35.895Z,23.73
2018-11-07T00:15:04.845Z,20.08
2018-11-07T00:17:33.707Z,21.80
2018-11-07T00:20:02.572Z,18.67
2018-11-07T00:22:31.773Z,18.98
2018-11-07T00:25:00.647Z,17.15
2018-11-07T00:27:29.655Z,20.27
2018-11-07T00:29:58.553Z,19.20
2018-11-07T00:32:27.284Z,23.15
2018-11-07T00:34:56.594Z,21.27
2018-11-07T00:37:25.438Z,16.45
2018-11-07T00:39:54.666Z,22.25
2018-11-07T00:42:23.590Z,21.12
2018-11-07T00:44:52.766Z,18.90
2018-11-07T00:47:21.625Z,19.92
2018-11-07T00:49:50.917Z,18.77
2018-11-07T00:54:59.272Z,22.93
2018-11-07T00:57:28.224Z,18.07
2018-11-07T00:59:56.900Z,20.10
2018-11-07T01:02:25.742Z,21.87
2018-11-07T01:04:54.481Z,20.55
2018-11-07T01:07:23.302Z,23.62
2018-11-07T01:09:52.054Z,18.37
2018-11-07T01:12:20.787Z,22.73
2018-11-07T01:14:49.428Z,18.73
2018-11-07T01:17:18.118Z,21.60
2018-11-07T01:19:46.840Z,20.02
2018-11-07T01:22:15.483Z,17.95
2018-11-07T01:24:44.168Z,19.37
2018-11-07T01:27:12.823Z,21.02
2018-11-07T01:29:41.650Z,21.87
2018-11-07T01:32:10.403Z,19.30
2018-11-07T01:34:39.141Z,22.42
2018-11-07T01:37:07.859Z,21.42
2018-11-07T01:39:37.846Z,23.20
2018-11-07T01:42:06.597Z,21.85
2018-11-07T01:44:35.416Z,23.30
2018-11-07T01:47:04.221Z,23.00
2018-11-07T01:49:33.013Z,27.82
2018-11-07T01:52:01.680Z,32.65
2018-11-07T01:54:30.391Z,26.17
2018-11-07T01:56:59.269Z,22.00
2018-11-07T01:59:27.973Z,24.02
2018-11-07T02:01:57.101Z,25.40
2018-11-07T02:04:25.837Z,22.32
2018-11-07T02:06:54.742Z,20.88
2018-11-07T02:09:23.396Z,25.23
2018-11-07T02:11:52.118Z,21.52
2018-11-07T02:14:20.737Z,25.32
2018-11-07T02:16:49.547Z,23.45
2018-11-07T02:19:18.278Z,18.10
2018-11-07T02:21:47.053Z,24.15
2018-11-07T02:24:15.926Z,23.70
2018-11-07T02:26:44.676Z,20.12
2018-11-07T02:29:14.096Z,15.53
2018-11-07T02:31:44.952Z,20.80
2018-11-07T02:34:14.555Z,22.02
2018-11-07T02:36:43.631Z,16.48
2018-11-07T02:39:15.506Z,14.73
2018-11-07T02:41:44.485Z,22.32
2018-11-07T02:44:14.153Z,19.10
2018-11-07T02:46:44.047Z,18.55
2018-11-07T02:49:12.779Z,18.75
2018-11-07T02:51:41.614Z,19.00
2018-11-07T02:54:10.404Z,17.90
2018-11-07T02:56:39.414Z,19.25
2018-11-07T02:59:08.114Z,19.32
2018-11-07T03:01:36.964Z,14.98
2018-11-07T03:04:06.105Z,16.10
2018-11-07T03:06:34.907Z,17.30
2018-11-07T03:09:05.323Z,16.35
2018-11-07T03:11:34.026Z,16.15
2018-11-07T03:14:02.788Z,14.30
2018-11-07T03:16:31.485Z,14.20
2018-11-07T03:19:00.266Z,16.97
2018-11-07T03:21:28.981Z,23.00
2018-11-07T03:23:58.074Z,20.57
2018-11-07T03:26:26.755Z,15.60
2018-11-07T03:28:55.513Z,15.93
2018-11-07T03:31:24.194Z,16.17
2018-11-07T03:33:53.534Z,27.15
2018-11-07T03:36:22.308Z,15.40
2018-11-07T03:38:51.099Z,17.27
2018-11-07T03:41:19.756Z,18.50
2018-11-07T03:43:48.489Z,16.15
2018-11-07T03:46:17.132Z,17.90
2018-11-07T03:48:46.151Z,17.05
2018-11-07T03:51:14.806Z,16.62
2018-11-07T03:53:43.609Z,14.68
2018-11-07T03:56:12.299Z,17.87
2018-11-07T03:58:41.084Z,14.23
2018-11-07T04:01:09.887Z,21.73
2018-11-07T04:03:38.649Z,14.90
2018-11-07T04:06:07.414Z,17.20
2018-11-07T04:08:36.354Z,16.45
2018-11-07T04:11:05.313Z,13.78
2018-11-07T04:13:34.014Z,15.63
2018-11-07T04:16:03.070Z,15.63
2018-11-07T04:18:31.871Z,17.60
2018-11-07T04:21:00.832Z,15.50
2018-11-07T04:23:29.683Z,19.65
2018-11-07T04:25:58.572Z,17.07
2018-11-07T04:28:27.225Z,14.78
2018-11-07T04:30:55.952Z,15.60
2018-11-07T04:33:24.716Z,17.05
2018-11-07T04:35:53.640Z,15.25
2018-11-07T04:38:22.322Z,14.50
2018-11-07T04:40:52.041Z,15.23
2018-11-07T04:43:20.740Z,15.72
2018-11-07T04:45:49.421Z,16.25
2018-11-07T04:48:18.226Z,16.40
2018-11-07T04:50:46.963Z,18.60
2018-11-07T04:53:15.826Z,16.48
2018-11-07T04:55:44.704Z,15.98
2018-11-07T04:58:13.559Z,22.15
2018-11-07T05:00:42.200Z,15.08
2018-11-07T05:03:11.853Z,16.50
2018-11-07T05:05:40.718Z,19.70
2018-11-07T05:08:09.324Z,13.18
2018-11-07T05:10:38.115Z,18.50
2018-11-07T05:13:06.878Z,16.40
2018-11-07T05:15:35.679Z,29.37
2018-11-07T05:18:04.708Z,18.80
2018-11-07T05:20:33.564Z,18.50
2018-11-07T05:23:02.327Z,15.45
2018-11-07T05:25:31.112Z,15.63
2018-11-07T05:28:00.111Z,16.40
2018-11-07T05:30:28.845Z,16.77
2018-11-07T05:32:57.727Z,18.52
2018-11-07T05:35:26.371Z,20.32
2018-11-07T05:37:55.796Z,17.45
2018-11-07T05:40:24.502Z,17.55
2018-11-07T05:42:53.232Z,17.35
2018-11-07T05:45:22.700Z,15.40
2018-11-07T05:47:51.569Z,17.32
2018-11-07T05:50:20.240Z,16.85
2018-11-07T05:52:49.094Z,21.65
2018-11-07T05:55:17.832Z,19.80
2018-11-07T05:57:46.615Z,14.98
2018-11-07T06:00:15.437Z,16.12
2018-11-07T06:02:44.867Z,23.02
2018-11-07T06:05:13.803Z,20.95
2018-11-07T06:07:42.427Z,16.52
2018-11-07T06:10:12.859Z,22.20
2018-11-07T06:12:41.992Z,22.37
2018-11-07T06:15:11.433Z,24.50
2018-11-07T06:17:40.169Z,24.23
2018-11-07T06:20:09.986Z,17.42
2018-11-07T06:22:39.306Z,17.82
2018-11-07T06:25:08.166Z,140.80
2018-11-07T06:27:36.940Z,18.57
2018-11-07T06:30:08.646Z,15.13
2018-11-07T06:32:37.434Z,14.40
2018-11-07T06:35:08.307Z,16.62
2018-11-07T06:37:36.964Z,15.20
2018-11-07T06:40:08.134Z,15.00
2018-11-07T06:42:36.867Z,14.65
2018-11-07T06:45:06.652Z,12.15
2018-11-07T06:47:35.228Z,17.23
2018-11-07T06:50:04.439Z,13.48
2018-11-07T06:52:33.037Z,21.87
2018-11-07T06:55:01.851Z,15.75
2018-11-07T06:57:30.645Z,27.70
2018-11-07T06:59:59.344Z,14.47
2018-11-07T07:02:28.161Z,15.95
2018-11-07T07:04:56.893Z,19.92
2018-11-07T07:07:26.206Z,18.80
2018-11-07T07:09:55.199Z,22.17
2018-11-07T07:12:25.439Z,17.48
2018-11-07T07:14:54.215Z,16.40
2018-11-07T07:17:22.905Z,14.18
2018-11-07T07:19:51.863Z,13.28
2018-11-07T07:22:20.478Z,23.65
2018-11-07T07:24:49.175Z,14.58
2018-11-07T07:27:17.846Z,17.27
2018-11-07T07:29:46.760Z,14.98
2018-11-07T07:32:15.335Z,20.70
2018-11-07T07:34:44.174Z,14.43
2018-11-07T07:37:13.601Z,15.30
2018-11-07T07:39:42.383Z,15.38
2018-11-07T07:42:11.391Z,21.62
2018-11-07T07:44:40.374Z,11.40
2018-11-07T07:47:10.018Z,15.63
2018-11-07T07:49:39.400Z,17.73
2018-11-07T07:52:08.680Z,17.00
2018-11-07T07:54:37.696Z,16.17
2018-11-07T07:57:07.386Z,15.88
2018-11-07T07:59:38.475Z,13.83
2018-11-07T08:02:08.201Z,12.30
2018-11-07T08:04:37.046Z,10.95
2018-11-07T08:07:07.063Z,13.10
2018-11-07T08:09:35.775Z,10.18
2018-11-07T08:12:04.603Z,12.15
2018-11-07T08:14:33.473Z,14.20
2018-11-07T08:17:02.309Z,11.63
2018-11-07T08:19:31.202Z,11.57
2018-11-07T08:21:59.901Z,9.10
2018-11-07T08:24:29.217Z,14.38
2018-11-07T08:26:57.875Z,11.20
2018-11-07T08:29:26.716Z,11.45
2018-11-07T08:31:55.274Z,10.65
2018-11-07T08:34:24.091Z,13.75
2018-11-07T08:36:52.892Z,13.13
2018-11-07T08:39:21.522Z,7.83
2018-11-07T08:41:50.158Z,12.53
2018-11-07T08:44:19.882Z,10.68
2018-11-07T08:46:49.201Z,6.20
2018-11-07T08:49:17.874Z,9.78
2018-11-07T08:51:46.457Z,17.10
2018-11-07T08:54:15.582Z,10.43
2018-11-07T08:56:44.345Z,5.97
2018-11-07T08:59:13.161Z,10.25
2018-11-07T09:01:45.088Z,5.85
2018-11-07T09:04:16.435Z,14.43
2018-11-07T09:06:47.124Z,9.18
2018-11-07T09:09:18.507Z,6.20
2018-11-07T09:11:50.342Z,8.33
2018-11-07T09:14:19.306Z,7.70
2018-11-07T09:16:49.343Z,10.80
2018-11-07T09:19:20.801Z,6.72
2018-11-07T09:21:49.494Z,7.20
2018-11-07T09:24:18.389Z,7.00
2018-11-07T09:26:47.038Z,6.87
2018-11-07T09:29:16.041Z,7.60
2018-11-07T09:31:44.697Z,4.17
2018-11-07T09:34:13.473Z,4.80
2018-11-07T09:36:42.172Z,6.50
2018-11-07T09:39:11.410Z,4.90
2018-11-07T09:41:40.066Z,4.13
2018-11-07T09:44:09.083Z,8.50
2018-11-07T09:46:38.552Z,5.47
2018-11-07T09:49:07.097Z,5.13
2018-11-07T09:51:35.985Z,6.73
2018-11-07T09:54:04.788Z,5.83
2018-11-07T09:56:33.366Z,4.70
2018-11-07T09:59:02.208Z,8.00
2018-11-07T10:01:30.860Z,7.70
2018-11-07T10:03:59.510Z,8.63
2018-11-07T10:06:28.189Z,3.63
2018-11-07T10:08:57.884Z,4.70
2018-11-07T10:11:26.574Z,4.93
2018-11-07T10:13:55.359Z,6.10
2018-11-07T10:16:24.045Z,5.23
2018-11-07T10:18:52.559Z,6.20
2018-11-07T10:21:21.294Z,8.63
2018-11-07T10:23:49.902Z,4.60
2018-11-07T10:26:19.622Z,6.43
2018-11-07T10:28:48.454Z,4.53
2018-11-07T10:31:18.652Z,5.47
2018-11-07T10:33:50.306Z,3.07
2018-11-07T10:36:20.544Z,2.63
2018-11-07T10:38:49.355Z,3.33
2018-11-07T10:41:19.334Z,4.40
2018-11-07T10:43:48.028Z,4.80
2018-11-07T10:46:16.543Z,4.83
2018-11-07T10:48:45.563Z,4.50
2018-11-07T10:51:14.320Z,7.20
2018-11-07T10:53:43.009Z,3.37
2018-11-07T10:56:11.661Z,2.23
2018-11-07T10:58:40.324Z,5.60
2018-11-07T11:01:16.868Z,8.13
2018-11-07T11:03:45.553Z,4.30
2018-11-07T11:06:14.227Z,3.53
2018-11-07T11:08:43.052Z,6.00
2018-11-07T11:13:45.229Z,13.07
2018-11-07T11:16:13.902Z,4.43
2018-11-07T11:18:42.706Z,4.83
2018-11-07T11:21:11.461Z,5.50
2018-11-07T11:23:40.140Z,3.87
2018-11-07T11:26:08.781Z,4.10
2018-11-07T11:28:37.338Z,2.30
2018-11-07T11:31:05.996Z,1.20
2018-11-07T11:33:34.523Z,1.80
2018-11-07T11:36:03.099Z,1.80
2018-11-07T11:38:31.596Z,1.83
2018-11-07T11:41:00.432Z,3.20
2018-11-07T11:43:29.011Z,2.30
2018-11-07T11:45:57.639Z,3.43
2018-11-07T11:48:26.355Z,4.10
2018-11-07T11:50:56.108Z,1.97
2018-11-07T11:53:25.074Z,5.80
2018-11-07T11:55:53.732Z,1.37
2018-11-07T11:58:22.695Z,1.83
2018-11-07T12:00:51.794Z,4.40
2018-11-07T12:03:20.585Z,5.70
2018-11-07T12:05:49.375Z,2.03
2018-11-07T12:08:18.525Z,1.67
2018-11-07T12:10:47.137Z,3.53
2018-11-07T12:13:15.920Z,1.33
2018-11-07T12:15:44.483Z,1.90
2018-11-07T12:18:13.137Z,3.07
2018-11-07T12:20:41.713Z,1.63
2018-11-07T12:23:10.334Z,5.47
2018-11-07T12:25:38.994Z,4.07
2018-11-07T12:28:07.666Z,2.00
2018-11-07T12:30:36.357Z,1.50
2018-11-07T12:33:05.191Z,3.97
2018-11-07T12:35:33.900Z,1.73
2018-11-07T12:38:02.480Z,2.70
2018-11-07T12:40:31.120Z,3.30
2018-11-07T12:42:59.860Z,1.10
2018-11-07T12:45:28.653Z,2.70
2018-11-07T12:47:57.260Z,7.13
2018-11-07T12:50:27.054Z,1.67
2018-11-07T12:52:55.650Z,3.73
2018-11-07T12:55:24.621Z,1.43
2018-11-07T12:57:53.583Z,2.23
2018-11-07T13:00:24.379Z,2.00
2018-11-07T13:02:53.272Z,2.57
2018-11-07T13:05:22.907Z,1.57
2018-11-07T13:07:52.616Z,3.27
2018-11-07T13:10:22.112Z,1.43
2018-11-07T13:12:51.386Z,1.80
2018-11-07T13:15:20.091Z,6.10
2018-11-07T13:17:49.707Z,3.47
2018-11-07T13:20:19.803Z,1.67
2018-11-07T13:22:49.694Z,1.13
2018-11-07T13:25:18.768Z,2.80
2018-11-07T13:27:47.307Z,3.57
2018-11-07T13:30:17.347Z,8.10
2018-11-07T13:32:45.981Z,3.23
2018-11-07T13:35:15.395Z,5.97
2018-11-07T13:37:44.960Z,1.47
2018-11-07T13:40:16.452Z,1.90
2018-11-07T13:42:45.083Z,2.20
2018-11-07T13:45:15.584Z,4.40
2018-11-07T13:47:45.351Z,1.27
2018-11-07T13:50:14.649Z,3.20
2018-11-07T13:52:43.262Z,7.33
2018-11-07T13:55:12.601Z,2.40
2018-11-07T13:57:41.570Z,1.80
2018-11-07T14:00:17.212Z,3.83
2018-11-07T14:02:46.297Z,4.40
2018-11-07T14:05:15.029Z,6.67
2018-11-07T14:07:43.640Z,2.00
2018-11-07T14:10:18.721Z,2.77
2018-11-07T14:12:47.775Z,3.43
2018-11-07T14:15:16.601Z,2.60
2018-11-07T14:17:45.491Z,1.37
2018-11-07T14:20:14.110Z,5.33
2018-11-07T14:22:42.874Z,3.23
2018-11-07T14:25:12.043Z,2.70
2018-11-07T14:27:40.935Z,2.20
2018-11-07T14:30:10.600Z,1.60
2018-11-07T14:32:42.020Z,1.37
2018-11-07T14:35:10.631Z,4.20
2018-11-07T14:37:39.443Z,1.23
2018-11-07T14:40:08.243Z,6.23
2018-11-07T14:42:37.846Z,0.70
2018-11-07T14:45:07.411Z,2.80
2018-11-07T14:47:36.251Z,2.50
2018-11-07T14:50:06.396Z,5.53
2018-11-07T14:52:35.100Z,8.10
2018-11-07T14:55:03.770Z,2.50
2018-11-07T14:57:34.064Z,1.83
2018-11-07T15:00:02.987Z,2.10
2018-11-07T15:02:31.860Z,2.50
2018-11-07T15:05:00.477Z,1.90
2018-11-07T15:07:29.270Z,2.57
2018-11-07T15:09:58.038Z,1.57
2018-11-07T15:12:26.751Z,3.23
2018-11-07T15:14:55.403Z,2.60
2018-11-07T15:17:24.104Z,1.97
2018-11-07T15:19:52.748Z,5.40
2018-11-07T15:22:21.627Z,3.50
2018-11-07T15:24:50.691Z,3.70
2018-11-07T15:27:19.310Z,4.10
2018-11-07T15:29:48.039Z,6.30
2018-11-07T15:32:16.729Z,5.33
2018-11-07T15:34:45.564Z,4.13
2018-11-07T15:37:14.074Z,2.90
2018-11-07T15:39:43.352Z,4.80
2018-11-07T15:42:11.961Z,4.13
2018-11-07T15:44:40.563Z,2.27
2018-11-07T15:47:09.251Z,2.53
2018-11-07T15:49:42.048Z,6.20
2018-11-07T15:52:10.870Z,3.40
2018-11-07T15:54:39.758Z,4.20
2018-11-07T15:57:08.658Z,7.00
2018-11-07T15:59:37.339Z,4.63
2018-11-07T16:02:06.152Z,3.13
2018-11-07T16:04:34.916Z,2.93
2018-11-07T16:07:03.583Z,3.80
2018-11-07T16:09:32.145Z,6.33
2018-11-07T16:12:01.098Z,1.83
2018-11-07T16:14:30.072Z,3.97
2018-11-07T16:19:39.413Z,2.40
2018-11-07T16:22:08.614Z,2.60
2018-11-07T16:24:37.680Z,2.90
2018-11-07T16:27:06.454Z,4.87
2018-11-07T16:29:35.367Z,7.07
2018-11-07T16:32:04.089Z,6.83
2018-11-07T16:34:32.790Z,4.10
2018-11-07T16:37:01.516Z,5.63
2018-11-07T16:39:30.617Z,3.00
2018-11-07T16:41:59.454Z,3.13
2018-11-07T16:44:28.120Z,5.77
2018-11-07T16:46:57.026Z,8.10
2018-11-07T16:49:25.620Z,4.70
2018-11-07T16:51:54.527Z,3.50
2018-11-07T16:54:23.916Z,2.63
2018-11-07T16:56:52.643Z,3.47
2018-11-07T16:59:21.345Z,3.27
2018-11-07T17:01:50.999Z,1.80
2018-11-07T17:04:19.823Z,4.90
2018-11-07T17:06:49.141Z,1.80
2018-11-07T17:09:17.809Z,3.77
2018-11-07T17:11:46.584Z,3.90
2018-11-07T17:14:15.710Z,3.67
2018-11-07T17:16:44.777Z,5.30
2018-11-07T17:19:13.526Z,8.77
2018-11-07T17:21:42.403Z,2.97
2018-11-07T17:24:11.239Z,3.53
2018-11-07T17:26:41.241Z,5.43
2018-11-07T17:29:10.202Z,6.43
2018-11-07T17:31:39.195Z,2.77
2018-11-07T17:34:08.316Z,3.23
2018-11-07T17:36:37.183Z,4.30
2018-11-07T17:39:08.116Z,2.33
2018-11-07T17:41:36.856Z,8.10
2018-11-07T17:44:05.909Z,4.60
2018-11-07T17:46:35.086Z,9.37
2018-11-07T17:49:03.918Z,5.70
2018-11-07T17:51:33.061Z,4.00
2018-11-07T17:54:02.979Z,2.90
2018-11-07T17:56:32.087Z,3.10
2018-11-07T17:59:01.487Z,4.80
2018-11-07T18:01:30.575Z,2.70
2018-11-07T18:03:59.799Z,2.13
2018-11-07T18:06:28.960Z,2.90
2018-11-07T18:08:58.250Z,4.00
2018-11-07T18:11:27.921Z,5.60
2018-11-07T18:13:57.327Z,3.87
2018-11-07T18:16:26.496Z,5.07
2018-11-07T18:18:55.969Z,4.80
2018-11-07T18:21:25.349Z,3.70
2018-11-07T18:23:57.037Z,3.30
2018-11-07T18:26:26.297Z,3.70
2018-11-07T18:28:56.386Z,4.97
2018-11-07T18:31:25.859Z,2.73
2018-11-07T18:33:55.201Z,4.70
2018-11-07T18:36:24.346Z,5.40
2018-11-07T18:38:53.460Z,3.43
2018-11-07T18:41:23.036Z,3.87
2018-11-07T18:43:53.109Z,7.63
2018-11-07T18:46:22.547Z,8.40
2018-11-07T18:48:51.945Z,3.67
2018-11-07T18:51:21.603Z,6.23
2018-11-07T18:53:51.058Z,5.60
2018-11-07T18:56:20.556Z,3.70
2018-11-07T18:58:50.362Z,4.93
2018-11-07T19:01:19.543Z,6.60
2018-11-07T19:03:50.202Z,6.83
2018-11-07T19:06:19.543Z,10.23
2018-11-07T19:08:48.908Z,6.57
2018-11-07T19:11:19.234Z,6.37
2018-11-07T19:13:48.660Z,5.17
2018-11-07T19:16:18.556Z,5.10
2018-11-07T19:18:48.015Z,9.00
2018-11-07T19:21:17.575Z,8.33
2018-11-07T19:23:46.749Z,7.80
2018-11-07T19:26:15.953Z,11.23
2018-11-07T19:28:46.365Z,6.30
2018-11-07T19:31:15.667Z,13.17
2018-11-07T19:33:46.477Z,10.70
2018-11-07T19:36:16.803Z,8.73
2018-11-07T19:38:46.877Z,10.40
2018-11-07T19:41:16.177Z,7.37
2018-11-07T19:43:46.546Z,9.20
2018-11-07T19:46:15.890Z,10.90
2018-11-07T19:48:45.306Z,14.30
2018-11-07T19:51:14.504Z,11.45
2018-11-07T19:53:45.346Z,7.60
2018-11-07T19:56:14.951Z,7.07
2018-11-07T19:58:45.012Z,8.17
2018-11-07T20:01:14.832Z,8.00
2018-11-07T20:03:44.723Z,6.47
2018-11-07T20:06:14.032Z,11.90
2018-11-07T20:08:43.815Z,8.10
2018-11-07T20:11:13.248Z,12.63
2018-11-07T20:13:43.073Z,8.98
2018-11-07T20:16:12.516Z,7.58
2018-11-07T20:18:42.983Z,5.35
2018-11-07T20:21:13.321Z,8.80
2018-11-07T20:23:42.497Z,6.50
2018-11-07T20:26:11.969Z,6.93
2018-11-07T20:28:41.632Z,4.80
2018-11-07T20:31:14.975Z,3.30
2018-11-07T20:33:44.262Z,2.43
2018-11-07T20:36:14.719Z,3.30
2018-11-07T20:38:43.943Z,4.80
2018-11-07T20:41:14.899Z,3.73
2018-11-07T20:43:44.172Z,3.77
2018-11-07T20:46:15.290Z,11.20
2018-11-07T20:48:44.606Z,3.08
2018-11-07T20:51:15.424Z,6.17
2018-11-07T20:53:44.782Z,4.80
2018-11-07T20:56:14.923Z,4.28
2018-11-07T20:58:44.128Z,5.10
2018-11-07T21:01:14.548Z,3.50
2018-11-07T21:03:44.404Z,4.20
2018-11-07T21:06:14.216Z,3.60
2018-11-07T21:08:44.329Z,3.50
2018-11-07T21:11:14.024Z,3.33
2018-11-07T21:13:43.395Z,13.30
2018-11-07T21:16:12.515Z,3.27
2018-11-07T21:18:42.010Z,3.90
2018-11-07T21:21:12.128Z,3.90
2018-11-07T21:23:41.379Z,8.83
2018-11-07T21:26:11.675Z,3.83
2018-11-07T21:28:40.845Z,3.37
2018-11-07T21:31:10.820Z,4.53
2018-11-07T21:33:39.991Z,1.70
2018-11-07T21:36:09.210Z,3.70
2018-11-07T21:38:38.561Z,3.37
2018-11-07T21:41:07.930Z,4.37
2018-11-07T21:43:37.116Z,4.43
2018-11-07T21:46:06.440Z,2.15
2018-11-07T21:48:35.594Z,4.13
2018-11-07T21:51:05.480Z,2.10
2018-11-07T21:53:34.677Z,4.80
2018-11-07T21:56:03.976Z,4.10
2018-11-07T21:58:33.131Z,3.10
2018-11-07T22:01:01.881Z,2.20
2018-11-07T22:03:30.537Z,3.17
2018-11-07T22:05:59.159Z,2.40
2018-11-07T22:08:27.876Z,2.03
2018-11-07T22:10:56.554Z,2.45
2018-11-07T22:13:25.368Z,2.83
2018-11-07T22:15:54.120Z,2.20
2018-11-07T22:18:22.890Z,3.67
2018-11-07T22:20:51.761Z,3.40
2018-11-07T22:23:20.664Z,2.62
2018-11-07T22:25:49.630Z,2.20
2018-11-07T22:28:18.638Z,2.50
2018-11-07T22:30:47.355Z,4.73
2018-11-07T22:33:16.376Z,5.03
2018-11-07T22:35:44.978Z,1.92
2018-11-07T22:38:13.562Z,3.50
2018-11-07T22:40:42.288Z,4.25
2018-11-07T22:43:10.922Z,3.80
2018-11-07T22:45:39.622Z,3.20
2018-11-07T22:48:08.230Z,2.62
2018-11-07T22:50:36.992Z,7.65
2018-11-07T22:53:05.817Z,5.45
2018-11-07T22:55:34.511Z,2.65
2018-11-07T22:58:03.212Z,4.05
2018-11-07T23:00:37.377Z,2.77
2018-11-07T23:03:07.000Z,3.13
2018-11-07T23:05:35.672Z,3.20
2018-11-07T23:08:04.265Z,5.40
2018-11-07T23:10:32.862Z,2.50
2018-11-07T23:13:01.409Z,4.20
2018-11-07T23:15:35.408Z,7.85
2018-11-07T23:18:04.026Z,2.87
2018-11-07T23:20:32.700Z,3.67
2018-11-07T23:23:01.346Z,1.90
2018-11-07T23:25:30.080Z,2.20
2018-11-07T23:27:58.862Z,3.27
2018-11-07T23:30:27.556Z,4.40
2018-11-07T23:32:56.148Z,6.17
2018-11-07T23:35:24.936Z,2.98
2018-11-07T23:37:53.542Z,3.00
2018-11-07T23:40:22.996Z,10.28
2018-11-07T23:42:51.721Z,3.20
2018-11-07T23:45:20.480Z,2.40
2018-11-07T23:47:49.253Z,3.90
2018-11-07T23:50:17.878Z,3.65
2018-11-07T23:52:52.602Z,4.35
2018-11-07T23:55:22.867Z,7.87
2018-11-07T23:57:53.198Z,4.42
